sensor_id;sensor_type;location;lat;lon;timestamp;P1;durP1;ratioP1;P2;durP2;ratioP2
4529;SDS011;2277;51.626;7.516;2023-06-10T00:00:54;5.40;;;4.77;;
4529;SDS011;2277;51.626;7.516;2023-06-10T00:03:21;7.17;;;4.60;;
4529;SDS011;2277;51.626;7.516;2023-06-10T00:05:48;8.40;;;6.80;;
4529;SDS011;2277;51.626;7.516;2023-06-10T00:08:14;5.70;;;4.50;;
4529;SDS011;2277;51.626;7.516;2023-06-10T00:10:44;5.70;;;4.87;;
4529;SDS011;2277;51.626;7.516;2023-06-10T00:13:10;6.03;;;4.93;;
4529;SDS011;2277;51.626;7.516;2023-06-10T00:15:36;6.70;;;6.03;;
4529;SDS011;2277;51.626;7.516;2023-06-10T00:18:02;7.70;;;5.13;;
4529;SDS011;2277;51.626;7.516;2023-06-10T00:20:29;4.50;;;4.10;;
4529;SDS011;2277;51.626;7.516;2023-06-10T00:22:55;8.70;;;4.50;;
4529;SDS011;2277;51.626;7.516;2023-06-10T00:25:22;5.37;;;4.60;;
4529;SDS011;2277;51.626;7.516;2023-06-10T00:27:47;5.20;;;4.50;;
4529;SDS011;2277;51.626;7.516;2023-06-10T00:30:13;4.80;;;4.40;;
4529;SDS011;2277;51.626;7.516;2023-06-10T00:32:39;7.30;;;5.07;;
4529;SDS011;2277;51.626;7.516;2023-06-10T00:35:05;7.40;;;6.33;;
4529;SDS011;2277;51.626;7.516;2023-06-10T00:37:31;4.97;;;4.57;;
4529;SDS011;2277;51.626;7.516;2023-06-10T00:39:57;6.60;;;4.73;;
4529;SDS011;2277;51.626;7.516;2023-06-10T00:42:23;5.33;;;4.83;;
4529;SDS011;2277;51.626;7.516;2023-06-10T00:44:53;6.10;;;4.40;;
4529;SDS011;2277;51.626;7.516;2023-06-10T00:47:19;7.13;;;6.43;;
4529;SDS011;2277;51.626;7.516;2023-06-10T00:49:45;4.80;;;4.37;;
4529;SDS011;2277;51.626;7.516;2023-06-10T00:52:12;8.00;;;6.17;;
4529;SDS011;2277;51.626;7.516;2023-06-10T00:54:38;6.50;;;5.83;;
4529;SDS011;2277;51.626;7.516;2023-06-10T00:57:04;7.73;;;5.90;;
4529;SDS011;2277;51.626;7.516;2023-06-10T00:59:30;6.93;;;6.10;;
4529;SDS011;2277;51.626;7.516;2023-06-10T01:01:57;7.80;;;6.20;;
4529;SDS011;2277;51.626;7.516;2023-06-10T01:04:22;7.50;;;5.80;;
4529;SDS011;2277;51.626;7.516;2023-06-10T01:09:38;7.80;;;6.10;;
4529;SDS011;2277;51.626;7.516;2023-06-10T01:12:08;7.10;;;5.07;;
4529;SDS011;2277;51.626;7.516;2023-06-10T01:14:38;5.73;;;5.13;;
4529;SDS011;2277;51.626;7.516;2023-06-10T01:17:10;7.70;;;4.43;;
4529;SDS011;2277;51.626;7.516;2023-06-10T01:19:36;5.30;;;4.20;;
4529;SDS011;2277;51.626;7.516;2023-06-10T01:22:02;6.47;;;5.10;;
4529;SDS011;2277;51.626;7.516;2023-06-10T01:24:28;6.30;;;4.57;;
4529;SDS011;2277;51.626;7.516;2023-06-10T01:26:58;21.80;;;6.50;;
4529;SDS011;2277;51.626;7.516;2023-06-10T01:29:28;6.20;;;5.30;;
4529;SDS011;2277;51.626;7.516;2023-06-10T01:32:15;5.37;;;4.87;;
4529;SDS011;2277;51.626;7.516;2023-06-10T01:34:47;6.00;;;4.50;;
4529;SDS011;2277;51.626;7.516;2023-06-10T01:37:16;6.67;;;5.10;;
4529;SDS011;2277;51.626;7.516;2023-06-10T01:39:45;5.83;;;5.17;;
4529;SDS011;2277;51.626;7.516;2023-06-10T01:42:12;6.30;;;5.77;;
4529;SDS011;2277;51.626;7.516;2023-06-10T01:44:38;6.30;;;5.30;;
4529;SDS011;2277;51.626;7.516;2023-06-10T01:47:04;9.83;;;5.00;;
4529;SDS011;2277;51.626;7.516;2023-06-10T01:49:30;8.47;;;5.33;;
4529;SDS011;2277;51.626;7.516;2023-06-10T01:51:56;5.90;;;4.87;;
4529;SDS011;2277;51.626;7.516;2023-06-10T01:54:21;6.50;;;5.23;;
4529;SDS011;2277;51.626;7.516;2023-06-10T01:56:47;5.30;;;4.80;;
4529;SDS011;2277;51.626;7.516;2023-06-10T01:59:12;5.10;;;4.07;;
4529;SDS011;2277;51.626;7.516;2023-06-10T02:01:38;6.03;;;5.43;;
4529;SDS011;2277;51.626;7.516;2023-06-10T02:04:03;6.77;;;5.67;;
4529;SDS011;2277;51.626;7.516;2023-06-10T02:06:29;6.93;;;5.67;;
4529;SDS011;2277;51.626;7.516;2023-06-10T02:08:55;5.83;;;5.07;;
4529;SDS011;2277;51.626;7.516;2023-06-10T02:11:20;8.13;;;5.53;;
4529;SDS011;2277;51.626;7.516;2023-06-10T02:13:46;7.60;;;4.80;;
4529;SDS011;2277;51.626;7.516;2023-06-10T02:16:12;4.63;;;4.23;;
4529;SDS011;2277;51.626;7.516;2023-06-10T02:18:39;6.60;;;5.33;;
4529;SDS011;2277;51.626;7.516;2023-06-10T02:21:08;6.70;;;4.63;;
4529;SDS011;2277;51.626;7.516;2023-06-10T02:23:33;9.90;;;4.97;;
4529;SDS011;2277;51.626;7.516;2023-06-10T02:25:59;6.03;;;4.50;;
4529;SDS011;2277;51.626;7.516;2023-06-10T02:28:25;7.87;;;5.23;;
4529;SDS011;2277;51.626;7.516;2023-06-10T02:30:51;8.03;;;5.40;;
4529;SDS011;2277;51.626;7.516;2023-06-10T02:33:17;7.57;;;4.33;;
4529;SDS011;2277;51.626;7.516;2023-06-10T02:39:04;5.37;;;4.87;;
4529;SDS011;2277;51.626;7.516;2023-06-10T02:41:30;4.60;;;4.20;;
4529;SDS011;2277;51.626;7.516;2023-06-10T02:43:56;6.30;;;5.70;;
4529;SDS011;2277;51.626;7.516;2023-06-10T02:46:21;7.07;;;4.90;;
4529;SDS011;2277;51.626;7.516;2023-06-10T02:48:47;6.63;;;5.93;;
4529;SDS011;2277;51.626;7.516;2023-06-10T02:51:14;4.53;;;3.90;;
4529;SDS011;2277;51.626;7.516;2023-06-10T02:53:39;7.27;;;6.30;;
4529;SDS011;2277;51.626;7.516;2023-06-10T02:56:05;7.90;;;4.20;;
4529;SDS011;2277;51.626;7.516;2023-06-10T02:58:31;5.47;;;4.27;;
4529;SDS011;2277;51.626;7.516;2023-06-10T03:00:57;5.00;;;4.57;;
4529;SDS011;2277;51.626;7.516;2023-06-10T03:03:23;5.27;;;4.73;;
4529;SDS011;2277;51.626;7.516;2023-06-10T03:05:50;5.83;;;5.30;;
4529;SDS011;2277;51.626;7.516;2023-06-10T03:08:16;11.20;;;4.40;;
4529;SDS011;2277;51.626;7.516;2023-06-10T03:10:41;4.73;;;3.40;;
4529;SDS011;2277;51.626;7.516;2023-06-10T03:13:07;9.07;;;8.03;;
4529;SDS011;2277;51.626;7.516;2023-06-10T03:15:35;5.20;;;4.80;;
4529;SDS011;2277;51.626;7.516;2023-06-10T03:18:01;5.47;;;4.23;;
4529;SDS011;2277;51.626;7.516;2023-06-10T03:20:27;4.17;;;3.87;;
4529;SDS011;2277;51.626;7.516;2023-06-10T03:22:53;6.03;;;3.77;;
4529;SDS011;2277;51.626;7.516;2023-06-10T03:25:19;4.43;;;3.87;;
4529;SDS011;2277;51.626;7.516;2023-06-10T03:27:45;3.67;;;3.37;;
4529;SDS011;2277;51.626;7.516;2023-06-10T03:30:12;9.67;;;5.27;;
4529;SDS011;2277;51.626;7.516;2023-06-10T03:32:38;4.87;;;4.33;;
4529;SDS011;2277;51.626;7.516;2023-06-10T03:35:04;5.70;;;4.23;;
4529;SDS011;2277;51.626;7.516;2023-06-10T03:37:30;9.63;;;3.47;;
4529;SDS011;2277;51.626;7.516;2023-06-10T03:39:56;4.53;;;3.63;;
4529;SDS011;2277;51.626;7.516;2023-06-10T03:42:21;10.87;;;3.37;;
4529;SDS011;2277;51.626;7.516;2023-06-10T03:44:47;5.63;;;2.93;;
4529;SDS011;2277;51.626;7.516;2023-06-10T03:47:12;4.20;;;3.60;;
4529;SDS011;2277;51.626;7.516;2023-06-10T03:49:38;5.77;;;4.70;;
4529;SDS011;2277;51.626;7.516;2023-06-10T03:52:05;6.10;;;3.30;;
4529;SDS011;2277;51.626;7.516;2023-06-10T03:54:31;6.27;;;4.23;;
4529;SDS011;2277;51.626;7.516;2023-06-10T03:56:56;4.37;;;3.97;;
4529;SDS011;2277;51.626;7.516;2023-06-10T03:59:22;4.70;;;3.90;;
4529;SDS011;2277;51.626;7.516;2023-06-10T04:01:48;4.77;;;3.33;;
4529;SDS011;2277;51.626;7.516;2023-06-10T04:04:14;6.37;;;4.07;;
4529;SDS011;2277;51.626;7.516;2023-06-10T04:06:42;5.87;;;4.90;;
4529;SDS011;2277;51.626;7.516;2023-06-10T04:09:09;6.03;;;3.77;;
4529;SDS011;2277;51.626;7.516;2023-06-10T04:11:35;7.37;;;3.07;;
4529;SDS011;2277;51.626;7.516;2023-06-10T04:14:01;9.03;;;4.00;;
4529;SDS011;2277;51.626;7.516;2023-06-10T04:16:27;5.60;;;4.60;;
4529;SDS011;2277;51.626;7.516;2023-06-10T04:18:53;15.83;;;4.27;;
4529;SDS011;2277;51.626;7.516;2023-06-10T04:21:19;4.43;;;3.97;;
4529;SDS011;2277;51.626;7.516;2023-06-10T04:23:45;4.70;;;3.80;;
4529;SDS011;2277;51.626;7.516;2023-06-10T04:26:10;6.50;;;3.97;;
4529;SDS011;2277;51.626;7.516;2023-06-10T04:28:37;4.63;;;3.33;;
4529;SDS011;2277;51.626;7.516;2023-06-10T04:31:03;4.60;;;3.70;;
4529;SDS011;2277;51.626;7.516;2023-06-10T04:33:29;4.87;;;3.23;;
4529;SDS011;2277;51.626;7.516;2023-06-10T04:35:55;7.10;;;3.80;;
4529;SDS011;2277;51.626;7.516;2023-06-10T04:38:20;4.63;;;3.20;;
4529;SDS011;2277;51.626;7.516;2023-06-10T04:40:46;11.23;;;4.23;;
4529;SDS011;2277;51.626;7.516;2023-06-10T04:43:12;6.00;;;3.90;;
4529;SDS011;2277;51.626;7.516;2023-06-10T04:45:38;11.53;;;4.60;;
4529;SDS011;2277;51.626;7.516;2023-06-10T04:48:04;6.07;;;3.00;;
4529;SDS011;2277;51.626;7.516;2023-06-10T04:50:30;5.70;;;3.73;;
4529;SDS011;2277;51.626;7.516;2023-06-10T04:52:58;6.87;;;5.63;;
4529;SDS011;2277;51.626;7.516;2023-06-10T04:55:23;10.70;;;3.60;;
4529;SDS011;2277;51.626;7.516;2023-06-10T04:57:50;5.57;;;3.40;;
4529;SDS011;2277;51.626;7.516;2023-06-10T05:00:16;5.60;;;3.13;;
4529;SDS011;2277;51.626;7.516;2023-06-10T05:02:42;6.40;;;3.60;;
4529;SDS011;2277;51.626;7.516;2023-06-10T05:05:08;6.50;;;4.27;;
4529;SDS011;2277;51.626;7.516;2023-06-10T05:07:33;3.13;;;2.83;;
4529;SDS011;2277;51.626;7.516;2023-06-10T05:09:59;3.93;;;3.10;;
4529;SDS011;2277;51.626;7.516;2023-06-10T05:12:25;6.70;;;3.90;;
4529;SDS011;2277;51.626;7.516;2023-06-10T05:14:51;8.93;;;4.80;;
4529;SDS011;2277;51.626;7.516;2023-06-10T05:17:17;5.37;;;3.43;;
4529;SDS011;2277;51.626;7.516;2023-06-10T05:19:42;4.57;;;3.37;;
4529;SDS011;2277;51.626;7.516;2023-06-10T05:22:09;5.03;;;3.80;;
4529;SDS011;2277;51.626;7.516;2023-06-10T05:24:34;4.50;;;3.20;;
4529;SDS011;2277;51.626;7.516;2023-06-10T05:27:00;8.60;;;3.23;;
4529;SDS011;2277;51.626;7.516;2023-06-10T05:29:26;6.93;;;3.30;;
4529;SDS011;2277;51.626;7.516;2023-06-10T05:31:51;3.77;;;3.10;;
4529;SDS011;2277;51.626;7.516;2023-06-10T05:34:17;3.40;;;3.10;;
4529;SDS011;2277;51.626;7.516;2023-06-10T05:36:43;5.70;;;3.30;;
4529;SDS011;2277;51.626;7.516;2023-06-10T05:39:09;3.00;;;2.80;;
4529;SDS011;2277;51.626;7.516;2023-06-10T05:41:35;4.37;;;3.97;;
4529;SDS011;2277;51.626;7.516;2023-06-10T05:44:01;4.77;;;3.40;;
4529;SDS011;2277;51.626;7.516;2023-06-10T05:46:26;4.90;;;2.93;;
4529;SDS011;2277;51.626;7.516;2023-06-10T05:48:52;5.77;;;2.50;;
4529;SDS011;2277;51.626;7.516;2023-06-10T05:51:17;4.30;;;3.50;;
4529;SDS011;2277;51.626;7.516;2023-06-10T05:53:43;6.03;;;3.50;;
4529;SDS011;2277;51.626;7.516;2023-06-10T05:56:11;5.63;;;3.37;;
4529;SDS011;2277;51.626;7.516;2023-06-10T05:58:37;5.70;;;3.20;;
4529;SDS011;2277;51.626;7.516;2023-06-10T06:01:03;3.60;;;2.47;;
4529;SDS011;2277;51.626;7.516;2023-06-10T06:03:29;3.93;;;3.40;;
4529;SDS011;2277;51.626;7.516;2023-06-10T06:05:54;5.47;;;4.10;;
4529;SDS011;2277;51.626;7.516;2023-06-10T06:08:20;3.90;;;3.43;;
4529;SDS011;2277;51.626;7.516;2023-06-10T06:10:45;3.97;;;3.10;;
4529;SDS011;2277;51.626;7.516;2023-06-10T06:13:12;4.77;;;3.00;;
4529;SDS011;2277;51.626;7.516;2023-06-10T06:15:38;5.50;;;3.83;;
4529;SDS011;2277;51.626;7.516;2023-06-10T06:18:04;5.40;;;2.77;;
4529;SDS011;2277;51.626;7.516;2023-06-10T06:20:29;4.47;;;3.03;;
4529;SDS011;2277;51.626;7.516;2023-06-10T06:22:55;3.07;;;2.77;;
4529;SDS011;2277;51.626;7.516;2023-06-10T06:25:20;2.37;;;2.10;;
4529;SDS011;2277;51.626;7.516;2023-06-10T06:27:46;5.03;;;2.77;;
4529;SDS011;2277;51.626;7.516;2023-06-10T06:30:12;4.57;;;2.20;;
4529;SDS011;2277;51.626;7.516;2023-06-10T06:32:37;4.57;;;2.80;;
4529;SDS011;2277;51.626;7.516;2023-06-10T06:35:03;3.80;;;2.70;;
4529;SDS011;2277;51.626;7.516;2023-06-10T06:37:32;3.13;;;2.53;;
4529;SDS011;2277;51.626;7.516;2023-06-10T06:39:58;3.93;;;3.23;;
4529;SDS011;2277;51.626;7.516;2023-06-10T06:42:24;2.97;;;2.03;;
4529;SDS011;2277;51.626;7.516;2023-06-10T06:44:49;3.43;;;2.43;;
4529;SDS011;2277;51.626;7.516;2023-06-10T06:47:15;4.83;;;3.13;;
4529;SDS011;2277;51.626;7.516;2023-06-10T06:49:44;4.07;;;2.47;;
4529;SDS011;2277;51.626;7.516;2023-06-10T06:52:13;3.03;;;2.73;;
4529;SDS011;2277;51.626;7.516;2023-06-10T06:54:40;6.13;;;3.37;;
4529;SDS011;2277;51.626;7.516;2023-06-10T06:57:05;3.70;;;3.30;;
4529;SDS011;2277;51.626;7.516;2023-06-10T06:59:32;4.40;;;2.20;;
4529;SDS011;2277;51.626;7.516;2023-06-10T07:01:58;5.87;;;3.53;;
4529;SDS011;2277;51.626;7.516;2023-06-10T07:04:23;5.20;;;2.63;;
4529;SDS011;2277;51.626;7.516;2023-06-10T07:06:49;15.23;;;2.53;;
4529;SDS011;2277;51.626;7.516;2023-06-10T07:09:15;2.70;;;2.20;;
4529;SDS011;2277;51.626;7.516;2023-06-10T07:11:41;6.27;;;4.00;;
4529;SDS011;2277;51.626;7.516;2023-06-10T07:14:07;5.20;;;2.77;;
4529;SDS011;2277;51.626;7.516;2023-06-10T07:16:32;3.13;;;2.60;;
4529;SDS011;2277;51.626;7.516;2023-06-10T07:18:58;2.37;;;2.17;;
4529;SDS011;2277;51.626;7.516;2023-06-10T07:21:24;3.83;;;3.47;;
4529;SDS011;2277;51.626;7.516;2023-06-10T07:23:50;3.70;;;2.17;;
4529;SDS011;2277;51.626;7.516;2023-06-10T07:26:18;4.30;;;2.80;;
4529;SDS011;2277;51.626;7.516;2023-06-10T07:28:44;4.20;;;2.40;;
4529;SDS011;2277;51.626;7.516;2023-06-10T07:31:10;3.17;;;2.33;;
4529;SDS011;2277;51.626;7.516;2023-06-10T07:33:37;5.90;;;3.23;;
4529;SDS011;2277;51.626;7.516;2023-06-10T07:36:04;2.40;;;2.20;;
4529;SDS011;2277;51.626;7.516;2023-06-10T07:38:30;5.13;;;3.90;;
4529;SDS011;2277;51.626;7.516;2023-06-10T07:40:56;5.03;;;3.13;;
4529;SDS011;2277;51.626;7.516;2023-06-10T07:43:22;4.50;;;2.87;;
4529;SDS011;2277;51.626;7.516;2023-06-10T07:45:49;3.97;;;2.60;;
4529;SDS011;2277;51.626;7.516;2023-06-10T07:48:14;6.20;;;3.07;;
4529;SDS011;2277;51.626;7.516;2023-06-10T07:50:40;2.10;;;1.87;;
4529;SDS011;2277;51.626;7.516;2023-06-10T07:53:05;3.90;;;2.50;;
4529;SDS011;2277;51.626;7.516;2023-06-10T07:55:31;3.33;;;2.87;;
4529;SDS011;2277;51.626;7.516;2023-06-10T07:57:57;3.30;;;2.80;;
4529;SDS011;2277;51.626;7.516;2023-06-10T08:00:23;4.90;;;2.80;;
4529;SDS011;2277;51.626;7.516;2023-06-10T08:02:48;4.90;;;2.20;;
4529;SDS011;2277;51.626;7.516;2023-06-10T08:05:15;2.33;;;2.13;;
4529;SDS011;2277;51.626;7.516;2023-06-10T08:07:41;2.90;;;2.60;;
4529;SDS011;2277;51.626;7.516;2023-06-10T08:10:07;4.23;;;2.13;;
4529;SDS011;2277;51.626;7.516;2023-06-10T08:12:33;5.20;;;2.43;;
4529;SDS011;2277;51.626;7.516;2023-06-10T08:14:59;2.30;;;2.10;;
4529;SDS011;2277;51.626;7.516;2023-06-10T08:17:25;3.13;;;2.30;;
4529;SDS011;2277;51.626;7.516;2023-06-10T08:19:50;4.33;;;2.47;;
4529;SDS011;2277;51.626;7.516;2023-06-10T08:22:16;4.90;;;2.47;;
4529;SDS011;2277;51.626;7.516;2023-06-10T08:24:42;6.50;;;2.57;;
4529;SDS011;2277;51.626;7.516;2023-06-10T08:27:07;3.00;;;2.70;;
4529;SDS011;2277;51.626;7.516;2023-06-10T08:29:33;2.80;;;2.50;;
4529;SDS011;2277;51.626;7.516;2023-06-10T08:31:59;2.80;;;2.43;;
4529;SDS011;2277;51.626;7.516;2023-06-10T08:34:25;3.57;;;2.70;;
4529;SDS011;2277;51.626;7.516;2023-06-10T08:36:51;5.10;;;3.20;;
4529;SDS011;2277;51.626;7.516;2023-06-10T08:39:18;4.33;;;2.83;;
4529;SDS011;2277;51.626;7.516;2023-06-10T08:41:56;3.13;;;2.83;;
4529;SDS011;2277;51.626;7.516;2023-06-10T08:44:31;4.00;;;2.87;;
4529;SDS011;2277;51.626;7.516;2023-06-10T08:47:00;6.40;;;2.10;;
4529;SDS011;2277;51.626;7.516;2023-06-10T08:49:38;3.00;;;2.73;;
4529;SDS011;2277;51.626;7.516;2023-06-10T08:52:06;6.67;;;3.60;;
4529;SDS011;2277;51.626;7.516;2023-06-10T08:54:35;5.10;;;2.80;;
4529;SDS011;2277;51.626;7.516;2023-06-10T08:57:03;2.60;;;2.33;;
4529;SDS011;2277;51.626;7.516;2023-06-10T08:59:33;4.13;;;3.73;;
4529;SDS011;2277;51.626;7.516;2023-06-10T09:01:59;3.13;;;2.53;;
4529;SDS011;2277;51.626;7.516;2023-06-10T09:04:27;4.37;;;3.53;;
4529;SDS011;2277;51.626;7.516;2023-06-10T09:06:53;6.50;;;3.00;;
4529;SDS011;2277;51.626;7.516;2023-06-10T09:09:20;3.23;;;2.07;;
4529;SDS011;2277;51.626;7.516;2023-06-10T09:11:47;4.37;;;2.90;;
4529;SDS011;2277;51.626;7.516;2023-06-10T09:14:13;3.00;;;2.50;;
4529;SDS011;2277;51.626;7.516;2023-06-10T09:16:39;5.20;;;2.83;;
4529;SDS011;2277;51.626;7.516;2023-06-10T09:19:05;4.77;;;3.00;;
4529;SDS011;2277;51.626;7.516;2023-06-10T09:21:33;2.60;;;2.40;;
4529;SDS011;2277;51.626;7.516;2023-06-10T09:24:00;3.27;;;2.97;;
4529;SDS011;2277;51.626;7.516;2023-06-10T09:26:29;5.07;;;3.17;;
4529;SDS011;2277;51.626;7.516;2023-06-10T09:29:05;6.10;;;3.40;;
4529;SDS011;2277;51.626;7.516;2023-06-10T09:31:34;4.80;;;3.03;;
4529;SDS011;2277;51.626;7.516;2023-06-10T09:36:33;4.73;;;3.63;;
4529;SDS011;2277;51.626;7.516;2023-06-10T09:39:00;4.30;;;3.43;;
4529;SDS011;2277;51.626;7.516;2023-06-10T09:41:33;3.40;;;2.93;;
4529;SDS011;2277;51.626;7.516;2023-06-10T09:44:00;3.90;;;2.80;;
4529;SDS011;2277;51.626;7.516;2023-06-10T09:46:29;4.57;;;3.27;;
4529;SDS011;2277;51.626;7.516;2023-06-10T09:48:57;3.53;;;3.00;;
4529;SDS011;2277;51.626;7.516;2023-06-10T09:51:23;4.30;;;2.80;;
4529;SDS011;2277;51.626;7.516;2023-06-10T09:53:52;5.43;;;3.13;;
4529;SDS011;2277;51.626;7.516;2023-06-10T09:56:18;2.67;;;2.27;;
4529;SDS011;2277;51.626;7.516;2023-06-10T09:58:45;4.50;;;3.20;;
4529;SDS011;2277;51.626;7.516;2023-06-10T10:01:12;5.30;;;3.23;;
4529;SDS011;2277;51.626;7.516;2023-06-10T10:03:51;6.00;;;4.07;;
4529;SDS011;2277;51.626;7.516;2023-06-10T10:06:18;3.83;;;3.20;;
4529;SDS011;2277;51.626;7.516;2023-06-10T10:08:47;5.73;;;3.07;;
4529;SDS011;2277;51.626;7.516;2023-06-10T10:11:14;5.40;;;3.33;;
4529;SDS011;2277;51.626;7.516;2023-06-10T10:13:42;4.17;;;3.77;;
4529;SDS011;2277;51.626;7.516;2023-06-10T10:19:25;6.03;;;3.20;;
4529;SDS011;2277;51.626;7.516;2023-06-10T10:22:01;2.87;;;2.50;;
4529;SDS011;2277;51.626;7.516;2023-06-10T10:24:36;6.20;;;2.80;;
4529;SDS011;2277;51.626;7.516;2023-06-10T10:27:10;3.40;;;3.10;;
4529;SDS011;2277;51.626;7.516;2023-06-10T10:29:42;4.53;;;4.00;;
4529;SDS011;2277;51.626;7.516;2023-06-10T10:32:12;6.50;;;3.67;;
4529;SDS011;2277;51.626;7.516;2023-06-10T10:34:47;4.40;;;4.00;;
4529;SDS011;2277;51.626;7.516;2023-06-10T10:37:13;5.73;;;3.50;;
4529;SDS011;2277;51.626;7.516;2023-06-10T10:39:39;4.20;;;3.47;;
4529;SDS011;2277;51.626;7.516;2023-06-10T10:42:05;5.67;;;2.93;;
4529;SDS011;2277;51.626;7.516;2023-06-10T10:44:35;3.77;;;3.30;;
4529;SDS011;2277;51.626;7.516;2023-06-10T10:47:05;3.93;;;2.93;;
4529;SDS011;2277;51.626;7.516;2023-06-10T10:49:34;3.30;;;2.70;;
4529;SDS011;2277;51.626;7.516;2023-06-10T10:52:01;3.50;;;3.20;;
4529;SDS011;2277;51.626;7.516;2023-06-10T10:54:36;4.07;;;3.27;;
4529;SDS011;2277;51.626;7.516;2023-06-10T11:03:04;3.83;;;3.23;;
4529;SDS011;2277;51.626;7.516;2023-06-10T11:05:12;5.67;;;3.73;;
4529;SDS011;2277;51.626;7.516;2023-06-10T11:07:39;4.07;;;3.23;;
4529;SDS011;2277;51.626;7.516;2023-06-10T11:10:08;4.33;;;3.73;;
4529;SDS011;2277;51.626;7.516;2023-06-10T11:12:42;3.93;;;3.63;;
4529;SDS011;2277;51.626;7.516;2023-06-10T11:15:21;4.47;;;3.50;;
4529;SDS011;2277;51.626;7.516;2023-06-10T11:23:47;3.70;;;3.00;;
4529;SDS011;2277;51.626;7.516;2023-06-10T11:26:19;5.07;;;4.57;;
4529;SDS011;2277;51.626;7.516;2023-06-10T11:33:56;4.30;;;3.90;;
4529;SDS011;2277;51.626;7.516;2023-06-10T11:36:23;4.73;;;4.10;;
4529;SDS011;2277;51.626;7.516;2023-06-10T11:38:50;5.37;;;4.43;;
4529;SDS011;2277;51.626;7.516;2023-06-10T11:41:27;4.03;;;3.70;;
4529;SDS011;2277;51.626;7.516;2023-06-10T11:43:54;4.57;;;3.50;;
4529;SDS011;2277;51.626;7.516;2023-06-10T11:46:23;3.60;;;3.20;;
4529;SDS011;2277;51.626;7.516;2023-06-10T11:48:53;4.20;;;3.80;;
4529;SDS011;2277;51.626;7.516;2023-06-10T11:51:20;5.67;;;3.60;;
4529;SDS011;2277;51.626;7.516;2023-06-10T11:53:49;4.10;;;3.80;;
4529;SDS011;2277;51.626;7.516;2023-06-10T11:56:27;4.13;;;3.70;;
4529;SDS011;2277;51.626;7.516;2023-06-10T11:58:58;4.10;;;3.60;;
4529;SDS011;2277;51.626;7.516;2023-06-10T12:01:24;4.37;;;3.23;;
4529;SDS011;2277;51.626;7.516;2023-06-10T12:04:03;4.23;;;3.57;;
4529;SDS011;2277;51.626;7.516;2023-06-10T12:12:00;4.40;;;3.77;;
4529;SDS011;2277;51.626;7.516;2023-06-10T12:17:22;4.40;;;4.00;;
4529;SDS011;2277;51.626;7.516;2023-06-10T12:19:59;3.60;;;3.30;;
4529;SDS011;2277;51.626;7.516;2023-06-10T12:22:26;4.13;;;3.53;;
4529;SDS011;2277;51.626;7.516;2023-06-10T12:24:58;3.10;;;2.87;;
4529;SDS011;2277;51.626;7.516;2023-06-10T12:27:28;4.87;;;3.50;;
4529;SDS011;2277;51.626;7.516;2023-06-10T12:29:55;7.67;;;4.13;;
4529;SDS011;2277;51.626;7.516;2023-06-10T12:32:38;5.90;;;3.90;;
4529;SDS011;2277;51.626;7.516;2023-06-10T12:35:06;5.10;;;3.70;;
4529;SDS011;2277;51.626;7.516;2023-06-10T12:37:32;4.03;;;3.53;;
4529;SDS011;2277;51.626;7.516;2023-06-10T12:40:00;5.37;;;4.07;;
4529;SDS011;2277;51.626;7.516;2023-06-10T12:42:27;3.70;;;3.27;;
4529;SDS011;2277;51.626;7.516;2023-06-10T12:44:53;4.07;;;3.07;;
4529;SDS011;2277;51.626;7.516;2023-06-10T12:47:19;3.00;;;2.60;;
4529;SDS011;2277;51.626;7.516;2023-06-10T12:49:45;5.07;;;4.67;;
4529;SDS011;2277;51.626;7.516;2023-06-10T12:52:10;3.90;;;3.30;;
4529;SDS011;2277;51.626;7.516;2023-06-10T12:54:36;4.63;;;3.90;;
4529;SDS011;2277;51.626;7.516;2023-06-10T12:57:02;4.50;;;3.37;;
4529;SDS011;2277;51.626;7.516;2023-06-10T12:59:28;4.30;;;3.63;;
4529;SDS011;2277;51.626;7.516;2023-06-10T13:01:54;4.97;;;4.20;;
4529;SDS011;2277;51.626;7.516;2023-06-10T13:04:20;4.07;;;3.00;;
4529;SDS011;2277;51.626;7.516;2023-06-10T13:06:46;4.53;;;4.10;;
4529;SDS011;2277;51.626;7.516;2023-06-10T13:09:15;3.23;;;2.93;;
4529;SDS011;2277;51.626;7.516;2023-06-10T13:11:41;3.87;;;3.37;;
4529;SDS011;2277;51.626;7.516;2023-06-10T13:14:07;3.93;;;3.53;;
4529;SDS011;2277;51.626;7.516;2023-06-10T13:16:34;6.80;;;3.10;;
4529;SDS011;2277;51.626;7.516;2023-06-10T13:19:03;5.47;;;4.30;;
4529;SDS011;2277;51.626;7.516;2023-06-10T13:21:30;3.87;;;3.13;;
4529;SDS011;2277;51.626;7.516;2023-06-10T13:23:56;3.73;;;3.43;;
4529;SDS011;2277;51.626;7.516;2023-06-10T13:26:22;5.70;;;3.67;;
4529;SDS011;2277;51.626;7.516;2023-06-10T13:28:48;9.10;;;3.77;;
4529;SDS011;2277;51.626;7.516;2023-06-10T13:31:13;3.53;;;2.70;;
4529;SDS011;2277;51.626;7.516;2023-06-10T13:33:39;4.57;;;3.57;;
4529;SDS011;2277;51.626;7.516;2023-06-10T13:36:05;3.70;;;3.17;;
4529;SDS011;2277;51.626;7.516;2023-06-10T13:38:31;4.60;;;4.03;;
4529;SDS011;2277;51.626;7.516;2023-06-10T13:40:56;3.77;;;3.47;;
4529;SDS011;2277;51.626;7.516;2023-06-10T13:43:22;6.40;;;3.30;;
4529;SDS011;2277;51.626;7.516;2023-06-10T13:45:48;4.43;;;3.47;;
4529;SDS011;2277;51.626;7.516;2023-06-10T13:48:13;3.97;;;3.30;;
4529;SDS011;2277;51.626;7.516;2023-06-10T13:50:39;3.43;;;3.10;;
4529;SDS011;2277;51.626;7.516;2023-06-10T13:53:05;8.63;;;4.23;;
4529;SDS011;2277;51.626;7.516;2023-06-10T13:55:30;5.23;;;3.70;;
4529;SDS011;2277;51.626;7.516;2023-06-10T13:57:56;4.97;;;4.47;;
4529;SDS011;2277;51.626;7.516;2023-06-10T14:00:21;7.07;;;3.70;;
4529;SDS011;2277;51.626;7.516;2023-06-10T14:02:47;3.80;;;3.30;;
4529;SDS011;2277;51.626;7.516;2023-06-10T14:05:13;4.60;;;3.30;;
4529;SDS011;2277;51.626;7.516;2023-06-10T14:07:38;4.90;;;3.57;;
4529;SDS011;2277;51.626;7.516;2023-06-10T14:10:05;5.63;;;3.23;;
4529;SDS011;2277;51.626;7.516;2023-06-10T14:12:33;5.60;;;4.60;;
4529;SDS011;2277;51.626;7.516;2023-06-10T14:14:59;3.27;;;2.90;;
4529;SDS011;2277;51.626;7.516;2023-06-10T14:17:25;4.23;;;3.50;;
4529;SDS011;2277;51.626;7.516;2023-06-10T14:19:51;4.00;;;3.60;;
4529;SDS011;2277;51.626;7.516;2023-06-10T14:22:16;5.93;;;3.80;;
4529;SDS011;2277;51.626;7.516;2023-06-10T14:24:42;4.20;;;3.80;;
4529;SDS011;2277;51.626;7.516;2023-06-10T14:27:07;4.10;;;3.40;;
4529;SDS011;2277;51.626;7.516;2023-06-10T14:29:33;5.07;;;3.50;;
4529;SDS011;2277;51.626;7.516;2023-06-10T14:32:00;4.10;;;2.80;;
4529;SDS011;2277;51.626;7.516;2023-06-10T14:34:25;7.90;;;3.37;;
4529;SDS011;2277;51.626;7.516;2023-06-10T14:36:58;3.63;;;3.17;;
4529;SDS011;2277;51.626;7.516;2023-06-10T14:39:29;4.23;;;3.83;;
4529;SDS011;2277;51.626;7.516;2023-06-10T14:41:54;4.20;;;3.80;;
4529;SDS011;2277;51.626;7.516;2023-06-10T14:44:20;4.13;;;3.70;;
4529;SDS011;2277;51.626;7.516;2023-06-10T14:46:45;6.47;;;3.50;;
4529;SDS011;2277;51.626;7.516;2023-06-10T14:49:11;3.60;;;3.30;;
4529;SDS011;2277;51.626;7.516;2023-06-10T14:51:37;3.37;;;3.07;;
4529;SDS011;2277;51.626;7.516;2023-06-10T14:54:02;5.23;;;3.50;;
4529;SDS011;2277;51.626;7.516;2023-06-10T14:56:28;4.27;;;3.87;;
4529;SDS011;2277;51.626;7.516;2023-06-10T14:58:54;3.77;;;3.47;;
4529;SDS011;2277;51.626;7.516;2023-06-10T15:01:20;5.10;;;3.40;;
4529;SDS011;2277;51.626;7.516;2023-06-10T15:03:45;3.50;;;3.03;;
4529;SDS011;2277;51.626;7.516;2023-06-10T15:06:11;4.93;;;3.63;;
4529;SDS011;2277;51.626;7.516;2023-06-10T15:08:36;4.33;;;3.50;;
4529;SDS011;2277;51.626;7.516;2023-06-10T15:11:02;9.00;;;5.60;;
4529;SDS011;2277;51.626;7.516;2023-06-10T15:13:28;3.27;;;2.97;;
4529;SDS011;2277;51.626;7.516;2023-06-10T15:15:54;5.67;;;3.13;;
4529;SDS011;2277;51.626;7.516;2023-06-10T15:18:19;4.27;;;3.97;;
4529;SDS011;2277;51.626;7.516;2023-06-10T15:20:45;3.70;;;3.40;;
4529;SDS011;2277;51.626;7.516;2023-06-10T15:23:10;9.10;;;3.10;;
4529;SDS011;2277;51.626;7.516;2023-06-10T15:25:36;5.07;;;3.70;;
4529;SDS011;2277;51.626;7.516;2023-06-10T15:28:02;8.80;;;4.80;;
4529;SDS011;2277;51.626;7.516;2023-06-10T15:30:28;5.13;;;3.30;;
4529;SDS011;2277;51.626;7.516;2023-06-10T15:32:54;3.23;;;2.80;;
4529;SDS011;2277;51.626;7.516;2023-06-10T15:35:19;10.03;;;3.30;;
4529;SDS011;2277;51.626;7.516;2023-06-10T15:37:45;3.77;;;3.00;;
4529;SDS011;2277;51.626;7.516;2023-06-10T15:40:11;3.33;;;2.90;;
4529;SDS011;2277;51.626;7.516;2023-06-10T15:42:36;3.83;;;3.07;;
4529;SDS011;2277;51.626;7.516;2023-06-10T15:45:02;3.47;;;3.17;;
4529;SDS011;2277;51.626;7.516;2023-06-10T15:47:28;4.10;;;3.70;;
4529;SDS011;2277;51.626;7.516;2023-06-10T15:49:54;4.43;;;3.97;;